sensor_id;sensor_type;location;lat;lon;timestamp;pressure;altitude;pressure_sealevel;temperature;humidity
51195;BME280;37259;49.972;19.850;2022-09-03T00:00:04;98800;;;11.2;100
51195;BME280;37259;49.972;19.850;2022-09-03T00:01:03;98800;;;11.2;100
51195;BME280;37259;49.972;19.850;2022-09-03T00:02:02;98800;;;11.3;100
51195;BME280;37259;49.972;19.850;2022-09-03T00:03:03;98800;;;11.3;100
51195;BME280;37259;49.972;19.850;2022-09-03T00:04:02;98810;;;11.2;100
51195;BME280;37259;49.972;19.850;2022-09-03T00:05:04;98810;;;11.2;100
51195;BME280;37259;49.972;19.850;2022-09-03T00:06:05;98810;;;11.3;100
51195;BME280;37259;49.972;19.850;2022-09-03T00:07:03;98810;;;11.3;100
51195;BME280;37259;49.972;19.850;2022-09-03T00:08:02;98810;;;11.3;100
51195;BME280;37259;49.972;19.850;2022-09-03T00:09:02;98810;;;11.3;100
51195;BME280;37259;49.972;19.850;2022-09-03T00:10:03;98810;;;11.2;100
51195;BME280;37259;49.972;19.850;2022-09-03T00:11:04;98810;;;11.3;100
51195;BME280;37259;49.972;19.850;2022-09-03T00:12:05;98800;;;11.2;100
51195;BME280;37259;49.972;19.850;2022-09-03T00:13:03;98800;;;11.2;100
51195;BME280;37259;49.972;19.850;2022-09-03T00:14:03;98800;;;11.2;100
51195;BME280;37259;49.972;19.850;2022-09-03T00:15:03;98800;;;11.2;100
51195;BME280;37259;49.972;19.850;2022-09-03T00:16:02;98800;;;11.2;100
51195;BME280;37259;49.972;19.850;2022-09-03T00:17:03;98800;;;11.2;100
51195;BME280;37259;49.972;19.850;2022-09-03T00:18:03;98800;;;11.2;100
51195;BME280;37259;49.972;19.850;2022-09-03T00:19:02;98800;;;11.1;100
51195;BME280;37259;49.972;19.850;2022-09-03T00:20:02;98800;;;11.1;100
51195;BME280;37259;49.972;19.850;2022-09-03T00:21:03;98800;;;11.2;100
51195;BME280;37259;49.972;19.850;2022-09-03T00:22:03;98800;;;11.1;100
51195;BME280;37259;49.972;19.850;2022-09-03T00:23:02;98800;;;11.1;100
51195;BME280;37259;49.972;19.850;2022-09-03T00:24:02;98800;;;11.1;100
51195;BME280;37259;49.972;19.850;2022-09-03T00:25:03;98800;;;11.1;100
51195;BME280;37259;49.972;19.850;2022-09-03T00:26:04;98800;;;11.1;100
51195;BME280;37259;49.972;19.850;2022-09-03T00:27:02;98800;;;11.1;100
51195;BME280;37259;49.972;19.850;2022-09-03T00:28:03;98800;;;11.1;100
51195;BME280;37259;49.972;19.850;2022-09-03T00:29:04;98800;;;11.1;100
51195;BME280;37259;49.972;19.850;2022-09-03T00:30:03;98800;;;11.1;100
51195;BME280;37259;49.972;19.850;2022-09-03T00:31:05;98800;;;11.1;100
51195;BME280;37259;49.972;19.850;2022-09-03T00:32:03;98800;;;11.1;100
51195;BME280;37259;49.972;19.850;2022-09-03T00:33:02;98800;;;11;100
51195;BME280;37259;49.972;19.850;2022-09-03T00:34:02;98800;;;11;100
51195;BME280;37259;49.972;19.850;2022-09-03T00:35:03;98800;;;11;100
51195;BME280;37259;49.972;19.850;2022-09-03T00:36:04;98800;;;11;100
51195;BME280;37259;49.972;19.850;2022-09-03T00:37:02;98800;;;11;100
51195;BME280;37259;49.972;19.850;2022-09-03T00:38:02;98800;;;11;100
51195;BME280;37259;49.972;19.850;2022-09-03T00:39:02;98790;;;10.9;100
51195;BME280;37259;49.972;19.850;2022-09-03T00:40:02;98790;;;10.9;100
51195;BME280;37259;49.972;19.850;2022-09-03T00:41:04;98790;;;10.9;100
51195;BME280;37259;49.972;19.850;2022-09-03T00:42:07;98790;;;10.9;100
51195;BME280;37259;49.972;19.850;2022-09-03T00:43:04;98790;;;10.9;100
51195;BME280;37259;49.972;19.850;2022-09-03T00:44:06;98790;;;10.9;100
51195;BME280;37259;49.972;19.850;2022-09-03T00:45:06;98800;;;10.8;100
51195;BME280;37259;49.972;19.850;2022-09-03T00:46:04;98800;;;10.8;100
51195;BME280;37259;49.972;19.850;2022-09-03T00:47:03;98790;;;10.8;100
51195;BME280;37259;49.972;19.850;2022-09-03T00:48:04;98790;;;10.8;100
51195;BME280;37259;49.972;19.850;2022-09-03T00:49:08;98790;;;10.8;100
51195;BME280;37259;49.972;19.850;2022-09-03T00:50:04;98790;;;10.8;100
51195;BME280;37259;49.972;19.850;2022-09-03T00:51:06;98790;;;10.8;100
51195;BME280;37259;49.972;19.850;2022-09-03T00:52:04;98800;;;10.8;100
51195;BME280;37259;49.972;19.850;2022-09-03T00:53:04;98790;;;10.7;100
51195;BME280;37259;49.972;19.850;2022-09-03T00:54:03;98790;;;10.7;100
51195;BME280;37259;49.972;19.850;2022-09-03T00:55:04;98790;;;10.7;100
51195;BME280;37259;49.972;19.850;2022-09-03T00:56:03;98790;;;10.7;100
51195;BME280;37259;49.972;19.850;2022-09-03T00:57:05;98790;;;10.7;100
51195;BME280;37259;49.972;19.850;2022-09-03T00:58:12;98790;;;10.7;100
51195;BME280;37259;49.972;19.850;2022-09-03T00:59:03;98790;;;10.7;100
51195;BME280;37259;49.972;19.850;2022-09-03T01:00:04;98790;;;10.6;100
51195;BME280;37259;49.972;19.850;2022-09-03T01:01:03;98790;;;10.6;100
51195;BME280;37259;49.972;19.850;2022-09-03T01:02:05;98790;;;10.6;100
51195;BME280;37259;49.972;19.850;2022-09-03T01:03:04;98790;;;10.6;100
51195;BME280;37259;49.972;19.850;2022-09-03T01:04:06;98780;;;10.6;100
51195;BME280;37259;49.972;19.850;2022-09-03T01:05:04;98780;;;10.6;100
51195;BME280;37259;49.972;19.850;2022-09-03T01:06:05;98780;;;10.6;100
51195;BME280;37259;49.972;19.850;2022-09-03T01:07:04;98780;;;10.6;100
51195;BME280;37259;49.972;19.850;2022-09-03T01:08:05;98780;;;10.6;100
51195;BME280;37259;49.972;19.850;2022-09-03T01:09:05;98780;;;10.5;100
51195;BME280;37259;49.972;19.850;2022-09-03T01:10:04;98780;;;10.5;100
51195;BME280;37259;49.972;19.850;2022-09-03T01:11:06;98790;;;10.5;100
51195;BME280;37259;49.972;19.850;2022-09-03T01:12:04;98790;;;10.5;100
51195;BME280;37259;49.972;19.850;2022-09-03T01:13:03;98790;;;10.5;100
51195;BME280;37259;49.972;19.850;2022-09-03T01:14:04;98790;;;10.4;100
51195;BME280;37259;49.972;19.850;2022-09-03T01:15:03;98790;;;10.4;100
51195;BME280;37259;49.972;19.850;2022-09-03T01:16:04;98790;;;10.4;100
51195;BME280;37259;49.972;19.850;2022-09-03T01:17:04;98790;;;10.4;100
51195;BME280;37259;49.972;19.850;2022-09-03T01:18:06;98790;;;10.4;100
51195;BME280;37259;49.972;19.850;2022-09-03T01:19:03;98780;;;10.3;100
51195;BME280;37259;49.972;19.850;2022-09-03T01:20:06;98780;;;10.3;100
51195;BME280;37259;49.972;19.850;2022-09-03T01:21:07;98780;;;10.3;100
51195;BME280;37259;49.972;19.850;2022-09-03T01:22:07;98780;;;10.3;100
51195;BME280;37259;49.972;19.850;2022-09-03T01:23:07;98780;;;10.3;100
51195;BME280;37259;49.972;19.850;2022-09-03T01:24:06;98790;;;10.3;100
51195;BME280;37259;49.972;19.850;2022-09-03T01:25:20;98790;;;10.3;100
51195;BME280;37259;49.972;19.850;2022-09-03T01:26:05;98790;;;10.2;100
51195;BME280;37259;49.972;19.850;2022-09-03T01:27:06;98780;;;10.2;100
51195;BME280;37259;49.972;19.850;2022-09-03T01:28:06;98780;;;10.2;100
51195;BME280;37259;49.972;19.850;2022-09-03T01:29:05;98780;;;10.2;100
51195;BME280;37259;49.972;19.850;2022-09-03T01:30:03;98780;;;10.2;100
51195;BME280;37259;49.972;19.850;2022-09-03T01:31:04;98780;;;10.1;100
51195;BME280;37259;49.972;19.850;2022-09-03T01:32:04;98780;;;10.1;100
51195;BME280;37259;49.972;19.850;2022-09-03T01:33:02;98780;;;10.1;100
51195;BME280;37259;49.972;19.850;2022-09-03T01:34:05;98780;;;10.1;100
51195;BME280;37259;49.972;19.850;2022-09-03T01:35:03;98780;;;10.1;100
51195;BME280;37259;49.972;19.850;2022-09-03T01:36:04;98780;;;10.1;100
51195;BME280;37259;49.972;19.850;2022-09-03T01:37:04;98780;;;10.1;100
51195;BME280;37259;49.972;19.850;2022-09-03T01:38:06;98790;;;10.1;100
51195;BME280;37259;49.972;19.850;2022-09-03T01:39:02;98790;;;10.1;100
51195;BME280;37259;49.972;19.850;2022-09-03T01:40:04;98790;;;10.1;100
51195;BME280;37259;49.972;19.850;2022-09-03T01:41:04;98780;;;10.1;100
51195;BME280;37259;49.972;19.850;2022-09-03T01:42:05;98780;;;10.1;100
51195;BME280;37259;49.972;19.850;2022-09-03T01:43:09;98790;;;10.1;100
51195;BME280;37259;49.972;19.850;2022-09-03T01:44:05;98790;;;10.1;100
51195;BME280;37259;49.972;19.850;2022-09-03T01:45:07;98790;;;10;100
51195;BME280;37259;49.972;19.850;2022-09-03T01:46:02;98790;;;10;100
51195;BME280;37259;49.972;19.850;2022-09-03T01:47:03;98790;;;10;100
51195;BME280;37259;49.972;19.850;2022-09-03T01:48:06;98790;;;10;100
51195;BME280;37259;49.972;19.850;2022-09-03T01:49:03;98780;;;10.1;100
51195;BME280;37259;49.972;19.850;2022-09-03T01:50:04;98780;;;10;100
51195;BME280;37259;49.972;19.850;2022-09-03T01:51:03;98780;;;10;100
51195;BME280;37259;49.972;19.850;2022-09-03T01:52:04;98780;;;10;100
51195;BME280;37259;49.972;19.850;2022-09-03T01:53:03;98780;;;10;100
51195;BME280;37259;49.972;19.850;2022-09-03T01:54:08;98780;;;10;100
51195;BME280;37259;49.972;19.850;2022-09-03T01:55:04;98780;;;10;100
51195;BME280;37259;49.972;19.850;2022-09-03T01:56:07;98780;;;10;100
51195;BME280;37259;49.972;19.850;2022-09-03T01:57:22;98780;;;10;100
51195;BME280;37259;49.972;19.850;2022-09-03T01:58:04;98780;;;10;100
51195;BME280;37259;49.972;19.850;2022-09-03T01:59:03;98780;;;9.9;100
51195;BME280;37259;49.972;19.850;2022-09-03T02:00:03;98780;;;9.9;100
51195;BME280;37259;49.972;19.850;2022-09-03T02:01:03;98780;;;9.9;100
51195;BME280;37259;49.972;19.850;2022-09-03T02:02:03;98790;;;10;100
51195;BME280;37259;49.972;19.850;2022-09-03T02:03:03;98780;;;10;100
51195;BME280;37259;49.972;19.850;2022-09-03T02:04:11;98790;;;9.9;100
51195;BME280;37259;49.972;19.850;2022-09-03T02:05:03;98790;;;9.9;100
51195;BME280;37259;49.972;19.850;2022-09-03T02:06:02;98790;;;9.9;100
51195;BME280;37259;49.972;19.850;2022-09-03T02:07:02;98790;;;9.9;100
51195;BME280;37259;49.972;19.850;2022-09-03T02:08:02;98790;;;10;100
51195;BME280;37259;49.972;19.850;2022-09-03T02:09:02;98790;;;10;100
51195;BME280;37259;49.972;19.850;2022-09-03T02:10:03;98790;;;10;100
51195;BME280;37259;49.972;19.850;2022-09-03T02:11:02;98790;;;10;100
51195;BME280;37259;49.972;19.850;2022-09-03T02:12:11;98800;;;10;100
51195;BME280;37259;49.972;19.850;2022-09-03T02:13:04;98800;;;10;100
51195;BME280;37259;49.972;19.850;2022-09-03T02:14:02;98800;;;10;100
51195;BME280;37259;49.972;19.850;2022-09-03T02:15:03;98800;;;10;100
51195;BME280;37259;49.972;19.850;2022-09-03T02:16:04;98790;;;10;100
51195;BME280;37259;49.972;19.850;2022-09-03T02:17:02;98800;;;10;100
51195;BME280;37259;49.972;19.850;2022-09-03T02:18:02;98800;;;10;100
51195;BME280;37259;49.972;19.850;2022-09-03T02:19:02;98800;;;9.9;100
51195;BME280;37259;49.972;19.850;2022-09-03T02:20:03;98800;;;9.9;100
51195;BME280;37259;49.972;19.850;2022-09-03T02:21:02;98800;;;9.9;100
51195;BME280;37259;49.972;19.850;2022-09-03T02:22:02;98800;;;9.9;100
51195;BME280;37259;49.972;19.850;2022-09-03T02:23:02;98800;;;9.9;100
51195;BME280;37259;49.972;19.850;2022-09-03T02:24:02;98800;;;9.9;100
51195;BME280;37259;49.972;19.850;2022-09-03T02:25:02;98800;;;9.9;100
51195;BME280;37259;49.972;19.850;2022-09-03T02:26:02;98800;;;9.9;100
51195;BME280;37259;49.972;19.850;2022-09-03T02:27:02;98800;;;9.9;100
51195;BME280;37259;49.972;19.850;2022-09-03T02:28:02;98800;;;9.8;100
51195;BME280;37259;49.972;19.850;2022-09-03T02:29:02;98800;;;9.8;100
51195;BME280;37259;49.972;19.850;2022-09-03T02:30:02;98800;;;9.8;100
51195;BME280;37259;49.972;19.850;2022-09-03T02:31:02;98790;;;9.8;100
51195;BME280;37259;49.972;19.850;2022-09-03T02:32:02;98790;;;9.8;100
51195;BME280;37259;49.972;19.850;2022-09-03T02:33:02;98790;;;9.7;100
51195;BME280;37259;49.972;19.850;2022-09-03T02:34:02;98790;;;9.7;100
51195;BME280;37259;49.972;19.850;2022-09-03T02:35:02;98790;;;9.7;100
51195;BME280;37259;49.972;19.850;2022-09-03T02:36:03;98790;;;9.7;100
51195;BME280;37259;49.972;19.850;2022-09-03T02:37:10;98800;;;9.6;100
51195;BME280;37259;49.972;19.850;2022-09-03T02:38:09;98800;;;9.6;100
51195;BME280;37259;49.972;19.850;2022-09-03T02:39:02;98800;;;9.6;100
51195;BME280;37259;49.972;19.850;2022-09-03T02:40:02;98800;;;9.6;100
51195;BME280;37259;49.972;19.850;2022-09-03T02:41:02;98800;;;9.6;100
51195;BME280;37259;49.972;19.850;2022-09-03T02:42:02;98800;;;9.6;100
51195;BME280;37259;49.972;19.850;2022-09-03T02:43:02;98800;;;9.5;100
51195;BME280;37259;49.972;19.850;2022-09-03T02:44:02;98800;;;9.5;100
51195;BME280;37259;49.972;19.850;2022-09-03T02:45:04;98800;;;9.5;100
51195;BME280;37259;49.972;19.850;2022-09-03T02:46:02;98800;;;9.5;100
51195;BME280;37259;49.972;19.850;2022-09-03T02:47:03;98800;;;9.4;100
51195;BME280;37259;49.972;19.850;2022-09-03T02:48:02;98800;;;9.4;100
51195;BME280;37259;49.972;19.850;2022-09-03T02:49:02;98800;;;9.4;100
51195;BME280;37259;49.972;19.850;2022-09-03T02:50:02;98800;;;9.4;100
51195;BME280;37259;49.972;19.850;2022-09-03T02:51:02;98800;;;9.4;100
51195;BME280;37259;49.972;19.850;2022-09-03T02:52:03;98800;;;9.4;100
51195;BME280;37259;49.972;19.850;2022-09-03T02:53:02;98800;;;9.4;100
51195;BME280;37259;49.972;19.850;2022-09-03T02:54:02;98800;;;9.4;100
51195;BME280;37259;49.972;19.850;2022-09-03T02:55:02;98810;;;9.3;100
51195;BME280;37259;49.972;19.850;2022-09-03T02:56:02;98810;;;9.3;100
51195;BME280;37259;49.972;19.850;2022-09-03T02:57:02;98810;;;9.3;100
51195;BME280;37259;49.972;19.850;2022-09-03T02:58:02;98810;;;9.3;100
51195;BME280;37259;49.972;19.850;2022-09-03T02:59:02;98810;;;9.2;100
51195;BME280;37259;49.972;19.850;2022-09-03T03:00:03;98810;;;9.2;100
51195;BME280;37259;49.972;19.850;2022-09-03T03:01:02;98810;;;9.2;100
51195;BME280;37259;49.972;19.850;2022-09-03T03:02:02;98810;;;9.2;100
51195;BME280;37259;49.972;19.850;2022-09-03T03:03:02;98810;;;9.2;100
51195;BME280;37259;49.972;19.850;2022-09-03T03:04:02;98810;;;9.2;100
51195;BME280;37259;49.972;19.850;2022-09-03T03:05:02;98810;;;9.2;100
51195;BME280;37259;49.972;19.850;2022-09-03T03:06:03;98810;;;9.2;100
51195;BME280;37259;49.972;19.850;2022-09-03T03:07:02;98810;;;9.1;100
51195;BME280;37259;49.972;19.850;2022-09-03T03:08:02;98810;;;9.1;100
51195;BME280;37259;49.972;19.850;2022-09-03T03:09:02;98810;;;9.1;100
51195;BME280;37259;49.972;19.850;2022-09-03T03:10:02;98800;;;9.1;100
51195;BME280;37259;49.972;19.850;2022-09-03T03:11:02;98810;;;9.1;100
51195;BME280;37259;49.972;19.850;2022-09-03T03:12:02;98810;;;9.1;100
51195;BME280;37259;49.972;19.850;2022-09-03T03:13:02;98810;;;9.1;100
51195;BME280;37259;49.972;19.850;2022-09-03T03:14:02;98810;;;9.1;100
51195;BME280;37259;49.972;19.850;2022-09-03T03:15:02;98810;;;9.1;100
51195;BME280;37259;49.972;19.850;2022-09-03T03:16:03;98810;;;9.1;100
51195;BME280;37259;49.972;19.850;2022-09-03T03:17:02;98810;;;9;100
51195;BME280;37259;49.972;19.850;2022-09-03T03:18:02;98820;;;9;100
51195;BME280;37259;49.972;19.850;2022-09-03T03:19:02;98820;;;9;100
51195;BME280;37259;49.972;19.850;2022-09-03T03:20:02;98810;;;9;100
51195;BME280;37259;49.972;19.850;2022-09-03T03:21:02;98810;;;9;100
51195;BME280;37259;49.972;19.850;2022-09-03T03:22:02;98810;;;9;100
51195;BME280;37259;49.972;19.850;2022-09-03T03:23:02;98800;;;9;100
51195;BME280;37259;49.972;19.850;2022-09-03T03:24:02;98800;;;9;100
51195;BME280;37259;49.972;19.850;2022-09-03T03:25:02;98800;;;8.9;100
51195;BME280;37259;49.972;19.850;2022-09-03T03:26:02;98800;;;9;100
51195;BME280;37259;49.972;19.850;2022-09-03T03:27:02;98800;;;8.9;100
51195;BME280;37259;49.972;19.850;2022-09-03T03:28:02;98800;;;8.9;100
51195;BME280;37259;49.972;19.850;2022-09-03T03:29:02;98800;;;8.9;100
51195;BME280;37259;49.972;19.850;2022-09-03T03:30:02;98800;;;8.9;100
51195;BME280;37259;49.972;19.850;2022-09-03T03:31:05;98800;;;8.9;100
51195;BME280;37259;49.972;19.850;2022-09-03T03:32:02;98800;;;8.9;100
51195;BME280;37259;49.972;19.850;2022-09-03T03:33:02;98800;;;8.9;100
51195;BME280;37259;49.972;19.850;2022-09-03T03:34:02;98800;;;8.9;100
51195;BME280;37259;49.972;19.850;2022-09-03T03:35:02;98800;;;8.9;100
51195;BME280;37259;49.972;19.850;2022-09-03T03:36:03;98800;;;8.8;100
51195;BME280;37259;49.972;19.850;2022-09-03T03:37:02;98810;;;8.8;100
51195;BME280;37259;49.972;19.850;2022-09-03T03:38:02;98810;;;8.8;100
51195;BME280;37259;49.972;19.850;2022-09-03T03:39:02;98810;;;8.8;100
51195;BME280;37259;49.972;19.850;2022-09-03T03:40:02;98800;;;8.8;100
51195;BME280;37259;49.972;19.850;2022-09-03T03:41:05;98810;;;8.8;100
51195;BME280;37259;49.972;19.850;2022-09-03T03:42:02;98810;;;8.8;100
51195;BME280;37259;49.972;19.850;2022-09-03T03:43:02;98810;;;8.8;100
51195;BME280;37259;49.972;19.850;2022-09-03T03:44:02;98810;;;8.8;100
51195;BME280;37259;49.972;19.850;2022-09-03T03:45:02;98810;;;8.8;100
51195;BME280;37259;49.972;19.850;2022-09-03T03:46:02;98810;;;8.8;100
51195;BME280;37259;49.972;19.850;2022-09-03T03:47:02;98810;;;8.8;100
51195;BME280;37259;49.972;19.850;2022-09-03T03:48:02;98810;;;8.8;100
51195;BME280;37259;49.972;19.850;2022-09-03T03:49:02;98810;;;8.8;100
51195;BME280;37259;49.972;19.850;2022-09-03T03:50:02;98810;;;8.8;100
51195;BME280;37259;49.972;19.850;2022-09-03T03:51:02;98810;;;8.8;100
51195;BME280;37259;49.972;19.850;2022-09-03T03:52:02;98810;;;8.8;100
51195;BME280;37259;49.972;19.850;2022-09-03T03:53:02;98800;;;8.7;100
51195;BME280;37259;49.972;19.850;2022-09-03T03:54:02;98800;;;8.7;100
51195;BME280;37259;49.972;19.850;2022-09-03T03:55:02;98810;;;8.7;100
51195;BME280;37259;49.972;19.850;2022-09-03T03:56:02;98810;;;8.8;100
51195;BME280;37259;49.972;19.850;2022-09-03T03:57:02;98810;;;8.8;100
51195;BME280;37259;49.972;19.850;2022-09-03T03:58:02;98810;;;8.7;100
51195;BME280;37259;49.972;19.850;2022-09-03T03:59:02;98810;;;8.7;100
51195;BME280;37259;49.972;19.850;2022-09-03T04:00:02;98810;;;8.7;100
51195;BME280;37259;49.972;19.850;2022-09-03T04:01:03;98810;;;8.7;100
51195;BME280;37259;49.972;19.850;2022-09-03T04:02:02;98810;;;8.7;100
51195;BME280;37259;49.972;19.850;2022-09-03T04:03:02;98810;;;8.7;100
51195;BME280;37259;49.972;19.850;2022-09-03T04:04:02;98810;;;8.7;100
51195;BME280;37259;49.972;19.850;2022-09-03T04:05:02;98810;;;8.8;100
51195;BME280;37259;49.972;19.850;2022-09-03T04:06:02;98810;;;8.8;100
51195;BME280;37259;49.972;19.850;2022-09-03T04:07:02;98810;;;8.8;100
51195;BME280;37259;49.972;19.850;2022-09-03T04:08:02;98810;;;8.8;100
51195;BME280;37259;49.972;19.850;2022-09-03T04:09:02;98810;;;8.8;100
51195;BME280;37259;49.972;19.850;2022-09-03T04:10:02;98810;;;8.8;100
51195;BME280;37259;49.972;19.850;2022-09-03T04:11:02;98800;;;8.8;100
51195;BME280;37259;49.972;19.850;2022-09-03T04:12:02;98800;;;8.9;100
51195;BME280;37259;49.972;19.850;2022-09-03T04:13:02;98800;;;8.9;100
51195;BME280;37259;49.972;19.850;2022-09-03T04:14:02;98810;;;8.9;100
51195;BME280;37259;49.972;19.850;2022-09-03T04:15:02;98810;;;8.9;100
51195;BME280;37259;49.972;19.850;2022-09-03T04:16:02;98800;;;9;100
51195;BME280;37259;49.972;19.850;2022-09-03T04:17:02;98800;;;9.1;100
51195;BME280;37259;49.972;19.850;2022-09-03T04:18:02;98800;;;9.1;100
51195;BME280;37259;49.972;19.850;2022-09-03T04:19:02;98800;;;9.1;100
51195;BME280;37259;49.972;19.850;2022-09-03T04:20:02;98800;;;9.1;100
51195;BME280;37259;49.972;19.850;2022-09-03T04:21:03;98800;;;9.2;100
51195;BME280;37259;49.972;19.850;2022-09-03T04:22:02;98800;;;9.2;100
51195;BME280;37259;49.972;19.850;2022-09-03T04:23:02;98800;;;9.2;100
51195;BME280;37259;49.972;19.850;2022-09-03T04:24:02;98800;;;9.2;100
51195;BME280;37259;49.972;19.850;2022-09-03T04:25:02;98790;;;9.3;100
51195;BME280;37259;49.972;19.850;2022-09-03T04:26:02;98790;;;9.3;100
51195;BME280;37259;49.972;19.850;2022-09-03T04:27:02;98800;;;9.3;100
51195;BME280;37259;49.972;19.850;2022-09-03T04:28:02;98800;;;9.3;100
51195;BME280;37259;49.972;19.850;2022-09-03T04:29:03;98800;;;9.3;100
51195;BME280;37259;49.972;19.850;2022-09-03T04:30:02;98800;;;9.4;100
51195;BME280;37259;49.972;19.850;2022-09-03T04:31:05;98800;;;9.4;100
51195;BME280;37259;49.972;19.850;2022-09-03T04:32:02;98800;;;9.4;100
51195;BME280;37259;49.972;19.850;2022-09-03T04:33:02;98800;;;9.4;100
51195;BME280;37259;49.972;19.850;2022-09-03T04:34:02;98800;;;9.4;100
51195;BME280;37259;49.972;19.850;2022-09-03T04:35:02;98800;;;9.4;100
51195;BME280;37259;49.972;19.850;2022-09-03T04:36:02;98810;;;9.5;100
51195;BME280;37259;49.972;19.850;2022-09-03T04:37:02;98810;;;9.5;100
51195;BME280;37259;49.972;19.850;2022-09-03T04:38:02;98810;;;9.5;100
51195;BME280;37259;49.972;19.850;2022-09-03T04:39:02;98810;;;9.5;100
51195;BME280;37259;49.972;19.850;2022-09-03T04:40:02;98810;;;9.5;100
51195;BME280;37259;49.972;19.850;2022-09-03T04:41:02;98820;;;9.5;100
51195;BME280;37259;49.972;19.850;2022-09-03T04:42:02;98820;;;9.5;100
51195;BME280;37259;49.972;19.850;2022-09-03T04:43:02;98820;;;9.5;100
51195;BME280;37259;49.972;19.850;2022-09-03T04:44:02;98820;;;9.6;100
51195;BME280;37259;49.972;19.850;2022-09-03T04:45:02;98820;;;9.6;100
51195;BME280;37259;49.972;19.850;2022-09-03T04:46:03;98820;;;9.7;100
51195;BME280;37259;49.972;19.850;2022-09-03T04:47:02;98820;;;9.7;100
51195;BME280;37259;49.972;19.850;2022-09-03T04:48:02;98820;;;9.8;100
51195;BME280;37259;49.972;19.850;2022-09-03T04:49:02;98820;;;9.8;100
51195;BME280;37259;49.972;19.850;2022-09-03T04:50:02;98810;;;9.8;100
51195;BME280;37259;49.972;19.850;2022-09-03T04:51:02;98810;;;9.8;100
51195;BME280;37259;49.972;19.850;2022-09-03T04:52:02;98810;;;9.9;100
51195;BME280;37259;49.972;19.850;2022-09-03T04:53:02;98810;;;9.9;100
51195;BME280;37259;49.972;19.850;2022-09-03T04:54:02;98810;;;9.9;100
51195;BME280;37259;49.972;19.850;2022-09-03T04:55:02;98820;;;9.9;100
51195;BME280;37259;49.972;19.850;2022-09-03T04:56:02;98820;;;9.9;100
51195;BME280;37259;49.972;19.850;2022-09-03T04:57:02;98820;;;10;100
51195;BME280;37259;49.972;19.850;2022-09-03T04:58:02;98820;;;10;100
51195;BME280;37259;49.972;19.850;2022-09-03T04:59:03;98810;;;10.1;100
51195;BME280;37259;49.972;19.850;2022-09-03T05:00:03;98820;;;10.1;100
51195;BME280;37259;49.972;19.850;2022-09-03T05:01:05;98820;;;10.1;100
51195;BME280;37259;49.972;19.850;2022-09-03T05:02:02;98820;;;10.1;100
51195;BME280;37259;49.972;19.850;2022-09-03T05:03:02;98820;;;10.2;100
51195;BME280;37259;49.972;19.850;2022-09-03T05:04:02;98820;;;10.2;100
51195;BME280;37259;49.972;19.850;2022-09-03T05:05:02;98820;;;10.2;100
51195;BME280;37259;49.972;19.850;2022-09-03T05:06:02;98820;;;10.3;100
51195;BME280;37259;49.972;19.850;2022-09-03T05:07:02;98820;;;10.3;100
51195;BME280;37259;49.972;19.850;2022-09-03T05:08:02;98830;;;10.4;100
51195;BME280;37259;49.972;19.850;2022-09-03T05:09:02;98830;;;10.4;100
51195;BME280;37259;49.972;19.850;2022-09-03T05:10:02;98830;;;10.5;100
51195;BME280;37259;49.972;19.850;2022-09-03T05:11:02;98830;;;10.5;100
51195;BME280;37259;49.972;19.850;2022-09-03T05:12:02;98830;;;10.5;100
51195;BME280;37259;49.972;19.850;2022-09-03T05:13:02;98830;;;10.6;100
51195;BME280;37259;49.972;19.850;2022-09-03T05:14:02;98830;;;10.6;100
51195;BME280;37259;49.972;19.850;2022-09-03T05:15:02;98830;;;10.7;100
51195;BME280;37259;49.972;19.850;2022-09-03T05:16:03;98830;;;10.7;100
51195;BME280;37259;49.972;19.850;2022-09-03T05:17:02;98830;;;10.7;100
51195;BME280;37259;49.972;19.850;2022-09-03T05:18:02;98830;;;10.7;100
51195;BME280;37259;49.972;19.850;2022-09-03T05:19:02;98830;;;10.7;100
51195;BME280;37259;49.972;19.850;2022-09-03T05:20:02;98840;;;10.8;100
51195;BME280;37259;49.972;19.850;2022-09-03T05:21:03;98840;;;10.8;100
51195;BME280;37259;49.972;19.850;2022-09-03T05:22:02;98840;;;10.8;100
51195;BME280;37259;49.972;19.850;2022-09-03T05:23:02;98840;;;10.9;100
51195;BME280;37259;49.972;19.850;2022-09-03T05:24:02;98840;;;10.9;100
51195;BME280;37259;49.972;19.850;2022-09-03T05:25:02;98840;;;10.9;100
51195;BME280;37259;49.972;19.850;2022-09-03T05:26:02;98840;;;10.8;100
51195;BME280;37259;49.972;19.850;2022-09-03T05:27:02;98840;;;10.8;100
51195;BME280;37259;49.972;19.850;2022-09-03T05:28:02;98840;;;10.9;100
51195;BME280;37259;49.972;19.850;2022-09-03T05:29:02;98840;;;10.9;100
51195;BME280;37259;49.972;19.850;2022-09-03T05:30:02;98840;;;11;100
51195;BME280;37259;49.972;19.850;2022-09-03T05:31:02;98840;;;11;100
51195;BME280;37259;49.972;19.850;2022-09-03T05:32:02;98840;;;11.1;100
51195;BME280;37259;49.972;19.850;2022-09-03T05:33:02;98840;;;11.1;100
51195;BME280;37259;49.972;19.850;2022-09-03T05:34:02;98830;;;11.3;100
51195;BME280;37259;49.972;19.850;2022-09-03T05:35:02;98830;;;11.3;100
51195;BME280;37259;49.972;19.850;2022-09-03T05:36:02;98830;;;11.5;100
51195;BME280;37259;49.972;19.850;2022-09-03T05:37:02;98830;;;11.5;100
51195;BME280;37259;49.972;19.850;2022-09-03T05:38:02;98830;;;11.5;100
51195;BME280;37259;49.972;19.850;2022-09-03T05:39:02;98830;;;11.6;100
51195;BME280;37259;49.972;19.850;2022-09-03T05:40:02;98830;;;11.6;100
51195;BME280;37259;49.972;19.850;2022-09-03T05:41:03;98830;;;11.5;100
51195;BME280;37259;49.972;19.850;2022-09-03T05:42:02;98830;;;11.5;100
51195;BME280;37259;49.972;19.850;2022-09-03T05:43:02;98820;;;11.4;100
51195;BME280;37259;49.972;19.850;2022-09-03T05:44:02;98820;;;11.4;100